استانبول, ترکیه

09:13 PM EEST on سپتامبر 22, 2014 (GMT +0300)
Ataturk | Change Station
CLOSE
Current Station
Airport
Location: Istanbul,
Elevation: 121 ft
Nearby Weather Stations

Elev 121 ft 40.98 °N, 28.81 °E | Updated 23 minutes ago

Clear
صاف
73 °F
Feels Like 73 °F
N
5
باد متغير باد from متغير

امروز
High -- | Low -- °F
--% Chance of Precip.
دیروز
High -- | Low -- °F
Precip. -- در
6:51 AM 7:02 PM
Waning Crescent, 2% visible
فشار 29.77 در
ديد -9999.0 مايل، ميل (در برابر كيلومتر
ابری
قطره شبنم 64 °F
رطوبت 73%
بارش باران 0.00 در
برف عمیق Not available.
مادون قرمز Not available.
Pollen Not available.
تمیزی هوا Not available.
Flu Activity Not available.
METAR LTBA 221750Z VRB04KT CAVOK 23/18 Q1008 NOSIG RMK RWY17L 12003KT RWY05 10003KT RWY23 11004KT

More Conditions Fewer Conditions

فشار 29.77 در
ديد -9999.0 مايل، ميل (در برابر كيلومتر
ابری
قطره شبنم 64 °F
رطوبت 73%
بارش باران 0.00 در
برف عمیق Not available.
مادون قرمز Not available.
Pollen Not available.
تمیزی هوا Not available.
Flu Activity Not available.
METAR LTBA 221750Z VRB04KT CAVOK 23/18 Q1008 NOSIG RMK RWY17L 12003KT RWY05 10003KT RWY23 11004KT

More Conditions Fewer Conditions

10-Day Weather Forecast

Almanac

ستاره شناسی

Sep. 22, 2014 Rise Set
وقت حقیقی 6:51 AM EEST 7:02 PM EEST
تاریک و روشن اجتماعی 6:24 AM EEST 7:29 PM EEST
تاریک روشن دریایی 5:52 AM EEST 8:01 PM EEST
شفق و فلق نجومی 5:19 AM EEST 8:34 PM EEST
ماه 5:01 AM EEST 6:00 PM EEST
میزان روشنایی روز 13h 05m
طول روز
12h 10m
Tomorrow will be 2m 42s shorter.
Waning Crescent, 2% of the Moon is Illuminated
امروز
Waning Crescent
Sep 24
New
Oct 1
ربع اول
Oct 8
ماه کامل
Oct 15
ربع آخر

Today's Extremes

Country Highs Country Lows

Community

WunderPhotos

Upload Photos

1,755,498 photos uploaded!

WunderBlogs® & News

Nearby

تمیزی هوا

Not available.

عمق برف

Not available.

Earthquake Activity

شهر Distance Mag. Time & Date
No recent earthquake activity has been reported nearby.
Minimum magnitude displayed is 2.5.

Coastal Water Temperatures

منطقه درجه حرارت
No Stations Reporting

Nearby Weather Stations